createdAt,value
2018-04-26T00:00:34.090Z,976.43
2018-04-26T00:01:34.019Z,976.46
2018-04-26T00:02:33.939Z,976.45
2018-04-26T00:03:33.863Z,976.41
2018-04-26T00:04:33.789Z,976.41
2018-04-26T00:05:33.710Z,976.42
2018-04-26T00:06:33.636Z,976.41
2018-04-26T00:07:33.559Z,976.38
2018-04-26T00:08:33.483Z,976.41
2018-04-26T00:09:33.410Z,976.41
2018-04-26T00:10:33.333Z,976.40
2018-04-26T00:11:33.257Z,976.42
2018-04-26T00:12:33.184Z,976.44
2018-04-26T00:13:33.104Z,976.45
2018-04-26T00:14:33.029Z,976.46
2018-04-26T00:15:32.953Z,976.44
2018-04-26T00:16:32.880Z,976.45
2018-04-26T00:17:32.806Z,976.41
2018-04-26T00:18:32.733Z,976.42
2018-04-26T00:19:32.651Z,976.43
2018-04-26T00:20:32.574Z,976.39
2018-04-26T00:21:32.500Z,976.40
2018-04-26T00:22:32.423Z,976.36
2018-04-26T00:23:32.347Z,976.41
2018-04-26T00:24:32.277Z,976.43
2018-04-26T00:25:32.216Z,976.45
2018-04-26T00:26:32.121Z,976.48
2018-04-26T00:27:32.042Z,976.46
2018-04-26T00:28:31.969Z,976.49
2018-04-26T00:29:31.891Z,976.45
2018-04-26T00:30:31.818Z,976.38
2018-04-26T00:31:31.742Z,976.40
2018-04-26T00:32:31.666Z,976.40
2018-04-26T00:33:31.587Z,976.38
2018-04-26T00:34:31.516Z,976.41
2018-04-26T00:35:31.454Z,976.41
2018-04-26T00:36:31.361Z,976.47
2018-04-26T00:37:31.286Z,976.48
2018-04-26T00:38:31.207Z,976.52
2018-04-26T00:39:31.134Z,976.49
2018-04-26T00:40:31.073Z,976.52
2018-04-26T00:41:30.991Z,976.54
2018-04-26T00:42:30.910Z,976.55
2018-04-26T00:43:30.829Z,976.53
2018-04-26T00:44:30.753Z,976.57
2018-04-26T00:45:30.689Z,976.55
2018-04-26T00:46:30.601Z,976.57
2018-04-26T00:47:30.526Z,976.61
2018-04-26T00:48:30.451Z,976.58
2018-04-26T00:49:30.376Z,976.61
2018-04-26T00:50:30.301Z,976.62
2018-04-26T00:51:30.246Z,976.63
2018-04-26T00:52:30.160Z,976.65
2018-04-26T00:53:30.070Z,976.66
2018-04-26T00:54:29.996Z,976.64
2018-04-26T00:55:29.919Z,976.67
2018-04-26T00:56:29.843Z,976.62
2018-04-26T00:57:29.772Z,976.56
2018-04-26T00:58:29.691Z,976.54
2018-04-26T00:59:29.614Z,976.53
2018-04-26T01:00:29.539Z,976.56
2018-04-26T01:01:29.471Z,976.60
2018-04-26T01:02:29.383Z,976.62
2018-04-26T01:03:29.308Z,976.67
2018-04-26T01:04:30.189Z,976.65
2018-04-26T01:05:29.175Z,976.69
2018-04-26T01:06:29.084Z,976.64
2018-04-26T01:07:29.004Z,976.63
2018-04-26T01:08:28.931Z,976.58
2018-04-26T01:09:28.853Z,976.71
2018-04-26T01:10:28.776Z,976.75
2018-04-26T01:11:28.703Z,976.81
2018-04-26T01:12:29.691Z,976.76
2018-04-26T01:13:28.545Z,976.73
2018-04-26T01:14:29.693Z,976.81
2018-04-26T01:15:28.392Z,976.80
2018-04-26T01:16:28.333Z,976.81
2018-04-26T01:17:28.263Z,976.76
2018-04-26T01:18:28.167Z,976.73
2018-04-26T01:19:28.091Z,976.68
2018-04-26T01:20:28.016Z,976.65
2018-04-26T01:21:27.939Z,976.61
2018-04-26T01:22:27.860Z,976.59
2018-04-26T01:23:28.694Z,976.65
2018-04-26T01:24:27.710Z,976.64
2018-04-26T01:25:27.638Z,976.66
2018-04-26T01:26:27.553Z,976.66
2018-04-26T01:27:27.480Z,976.67
2018-04-26T01:28:27.404Z,976.65
2018-04-26T01:29:27.325Z,976.58
2018-04-26T01:30:27.246Z,976.61
2018-04-26T01:31:27.173Z,976.62
2018-04-26T01:32:27.099Z,976.62
2018-04-26T01:33:27.018Z,976.66
2018-04-26T01:34:26.946Z,976.59
2018-04-26T01:35:26.866Z,976.54
2018-04-26T01:36:26.793Z,976.48
2018-04-26T01:37:26.717Z,976.46
2018-04-26T01:38:26.639Z,976.46
2018-04-26T01:39:26.568Z,976.42
2018-04-26T01:40:26.488Z,976.44
2018-04-26T01:41:26.411Z,976.48
2018-04-26T01:42:26.334Z,976.51
2018-04-26T01:43:26.259Z,976.55
2018-04-26T01:44:26.182Z,976.56
2018-04-26T01:45:26.138Z,976.54
2018-04-26T01:46:26.028Z,976.57
2018-04-26T01:47:25.954Z,976.53
2018-04-26T01:48:25.877Z,976.53
2018-04-26T01:49:25.802Z,976.57
2018-04-26T01:50:25.725Z,976.58
2018-04-26T01:51:25.646Z,976.60
2018-04-26T01:52:25.568Z,976.55
2018-04-26T01:53:25.493Z,976.50
2018-04-26T01:54:25.417Z,976.45
2018-04-26T01:55:25.358Z,976.43
2018-04-26T01:56:25.272Z,976.39
2018-04-26T01:57:25.188Z,976.46
2018-04-26T01:58:25.113Z,976.44
2018-04-26T01:59:25.054Z,976.47
2018-04-26T02:00:24.959Z,976.52
2018-04-26T02:01:24.880Z,976.51
2018-04-26T02:02:24.805Z,976.48
2018-04-26T02:03:24.739Z,976.45
2018-04-26T02:04:24.653Z,976.42
2018-04-26T02:05:24.575Z,976.47
2018-04-26T02:06:24.500Z,976.48
2018-04-26T02:07:24.425Z,976.49
2018-04-26T02:08:24.348Z,976.47
2018-04-26T02:09:24.274Z,976.55
2018-04-26T02:10:24.195Z,976.57
2018-04-26T02:11:24.117Z,976.60
2018-04-26T02:12:24.044Z,976.60
2018-04-26T02:13:23.965Z,976.54
2018-04-26T02:14:23.889Z,976.57
2018-04-26T02:15:23.849Z,976.56
2018-04-26T02:16:23.737Z,976.57
2018-04-26T02:17:23.662Z,976.57
2018-04-26T02:18:23.582Z,976.58
2018-04-26T02:19:23.506Z,976.55
2018-04-26T02:20:23.431Z,976.49
2018-04-26T02:21:23.357Z,976.50
2018-04-26T02:22:23.278Z,976.45
2018-04-26T02:23:23.205Z,976.42
2018-04-26T02:24:23.126Z,976.40
2018-04-26T02:25:23.048Z,976.44
2018-04-26T02:26:22.975Z,976.43
2018-04-26T02:27:22.896Z,976.48
2018-04-26T02:28:22.828Z,976.50
2018-04-26T02:29:22.748Z,976.50
2018-04-26T02:30:22.670Z,976.51
2018-04-26T02:31:22.597Z,976.52
2018-04-26T02:32:22.518Z,976.56
2018-04-26T02:33:22.446Z,976.59
2018-04-26T02:34:22.366Z,976.53
2018-04-26T02:35:22.288Z,976.62
2018-04-26T02:36:22.213Z,976.62
2018-04-26T02:37:22.136Z,976.59
2018-04-26T02:38:22.066Z,976.55
2018-04-26T02:39:21.984Z,976.54
2018-04-26T02:40:21.912Z,976.55
2018-04-26T02:41:21.834Z,976.51
2018-04-26T02:42:21.754Z,976.53
2018-04-26T02:43:21.694Z,976.57
2018-04-26T02:44:21.601Z,976.57
2018-04-26T02:45:21.524Z,976.59
2018-04-26T02:46:21.449Z,976.59
2018-04-26T02:47:21.375Z,976.62
2018-04-26T02:48:21.296Z,976.61
2018-04-26T02:49:21.221Z,976.60
2018-04-26T02:50:21.144Z,976.59
2018-04-26T02:51:21.072Z,976.54
2018-04-26T02:52:20.992Z,976.54
2018-04-26T02:53:20.938Z,976.52
2018-04-26T02:54:20.837Z,976.52
2018-04-26T02:55:20.758Z,976.57
2018-04-26T02:56:20.685Z,976.59
2018-04-26T02:57:20.609Z,976.61
2018-04-26T02:58:20.532Z,976.65
2018-04-26T02:59:20.469Z,976.71
2018-04-26T03:00:20.381Z,976.76
2018-04-26T03:01:20.301Z,976.74
2018-04-26T03:02:20.226Z,976.78
2018-04-26T03:03:20.151Z,976.76
2018-04-26T03:04:20.076Z,976.79
2018-04-26T03:05:20.003Z,976.78
2018-04-26T03:06:19.920Z,976.80
2018-04-26T03:07:19.854Z,976.78
2018-04-26T03:08:19.781Z,976.76
2018-04-26T03:09:19.706Z,976.74
2018-04-26T03:10:19.629Z,976.72
2018-04-26T03:11:19.538Z,976.74
2018-04-26T03:12:19.466Z,976.71
2018-04-26T03:13:19.388Z,976.74
2018-04-26T03:14:19.308Z,976.67
2018-04-26T03:15:19.233Z,976.67
2018-04-26T03:16:19.157Z,976.69
2018-04-26T03:17:19.078Z,976.70
2018-04-26T03:18:19.002Z,976.69
2018-04-26T03:19:18.926Z,976.71
2018-04-26T03:20:18.866Z,976.73
2018-04-26T03:21:18.772Z,976.74
2018-04-26T03:22:18.696Z,976.71
2018-04-26T03:23:18.627Z,976.76
2018-04-26T03:24:18.548Z,976.81
2018-04-26T03:25:18.469Z,976.78
2018-04-26T03:26:18.399Z,976.81
2018-04-26T03:27:18.312Z,976.84
2018-04-26T03:28:18.238Z,976.86
2018-04-26T03:29:18.161Z,976.86
2018-04-26T03:30:18.084Z,976.85
2018-04-26T03:31:18.116Z,976.90
2018-04-26T03:32:17.931Z,976.91
2018-04-26T03:33:17.855Z,976.92
2018-04-26T03:34:17.778Z,976.93
2018-04-26T03:35:17.703Z,976.93
2018-04-26T03:36:17.626Z,976.93
2018-04-26T03:37:17.577Z,976.97
2018-04-26T03:38:17.482Z,976.95
2018-04-26T03:39:17.394Z,976.94
2018-04-26T03:40:17.318Z,976.93
2018-04-26T03:41:17.242Z,976.92
2018-04-26T03:42:17.171Z,977.01
2018-04-26T03:43:17.099Z,976.99
2018-04-26T03:44:17.012Z,977.00
2018-04-26T03:45:16.934Z,977.03
2018-04-26T03:46:16.860Z,977.04
2018-04-26T03:47:16.780Z,977.03
2018-04-26T03:48:16.701Z,977.02
2018-04-26T03:49:16.625Z,977.03
2018-04-26T03:50:16.551Z,977.00
2018-04-26T03:51:16.473Z,977.02
2018-04-26T03:52:16.398Z,976.99
2018-04-26T03:53:16.322Z,977.00
2018-04-26T03:54:16.257Z,976.97
2018-04-26T03:55:16.167Z,977.02
2018-04-26T03:56:16.097Z,976.95
2018-04-26T03:57:16.015Z,977.01
2018-04-26T03:58:15.963Z,977.02
2018-04-26T03:59:15.858Z,977.03
2018-04-26T04:00:15.785Z,977.04
2018-04-26T04:01:15.703Z,977.01
2018-04-26T04:02:15.644Z,976.97
2018-04-26T04:03:15.556Z,977.04
2018-04-26T04:04:15.477Z,976.95
2018-04-26T04:05:15.407Z,976.97
2018-04-26T04:06:15.326Z,976.91
2018-04-26T04:07:15.243Z,976.98
2018-04-26T04:08:15.173Z,977.03
2018-04-26T04:09:15.094Z,977.00
2018-04-26T04:10:15.031Z,977.03
2018-04-26T04:11:14.939Z,977.04
2018-04-26T04:12:14.864Z,977.08
2018-04-26T04:13:14.785Z,977.12
2018-04-26T04:14:14.707Z,977.20
2018-04-26T04:15:14.637Z,977.25
2018-04-26T04:16:14.555Z,977.32
2018-04-26T04:17:14.495Z,977.37
2018-04-26T04:18:14.400Z,977.37
2018-04-26T04:19:14.325Z,977.36
2018-04-26T04:20:14.248Z,977.31
2018-04-26T04:21:14.169Z,977.31
2018-04-26T04:22:14.094Z,977.32
2018-04-26T04:23:14.016Z,977.33
2018-04-26T04:24:13.939Z,977.38
2018-04-26T04:25:13.878Z,977.40
2018-04-26T04:26:13.785Z,977.43
2018-04-26T04:27:13.708Z,977.46
2018-04-26T04:28:13.628Z,977.49
2018-04-26T04:29:13.555Z,977.44
2018-04-26T04:30:13.475Z,977.44
2018-04-26T04:31:13.397Z,977.47
2018-04-26T04:32:13.338Z,977.47
2018-04-26T04:33:13.245Z,977.48
2018-04-26T04:34:13.169Z,977.51
2018-04-26T04:35:13.112Z,977.47
2018-04-26T04:36:13.015Z,977.49
2018-04-26T04:37:12.955Z,977.48
2018-04-26T04:38:12.861Z,977.45
2018-04-26T04:39:12.782Z,977.54
2018-04-26T04:40:12.708Z,977.53
2018-04-26T04:41:12.627Z,977.57
2018-04-26T04:42:12.558Z,977.58
2018-04-26T04:43:12.492Z,977.65
2018-04-26T04:44:12.398Z,977.61
2018-04-26T04:45:12.360Z,977.63
2018-04-26T04:46:12.244Z,977.63
2018-04-26T04:47:12.167Z,977.64
2018-04-26T04:48:12.091Z,977.68
2018-04-26T04:49:12.025Z,977.76
2018-04-26T04:50:11.934Z,977.74
2018-04-26T04:51:11.857Z,977.78
2018-04-26T04:52:11.781Z,977.81
2018-04-26T04:53:11.703Z,977.83
2018-04-26T04:54:11.651Z,977.94
2018-04-26T04:55:11.548Z,977.95
2018-04-26T04:56:11.472Z,978.01
2018-04-26T04:57:11.396Z,978.07
2018-04-26T04:58:11.315Z,978.02
2018-04-26T04:59:11.243Z,977.99
2018-04-26T05:00:11.162Z,978.03
2018-04-26T05:01:11.089Z,978.08
2018-04-26T05:02:11.006Z,978.11
2018-04-26T05:03:10.928Z,978.17
2018-04-26T05:04:10.854Z,978.23
2018-04-26T05:05:10.798Z,978.18
2018-04-26T05:06:10.697Z,978.19
2018-04-26T05:07:10.620Z,978.19
2018-04-26T05:08:10.542Z,978.19
2018-04-26T05:09:10.464Z,978.28
2018-04-26T05:10:10.417Z,978.31
2018-04-26T05:11:10.310Z,978.27
2018-04-26T05:12:10.247Z,978.30
2018-04-26T05:13:10.158Z,978.21
2018-04-26T05:14:10.113Z,978.17
2018-04-26T05:15:10.001Z,978.11
2018-04-26T05:16:09.923Z,978.12
2018-04-26T05:17:09.847Z,978.14
2018-04-26T05:18:09.767Z,978.19
2018-04-26T05:19:09.693Z,978.15
2018-04-26T05:20:09.612Z,978.18
2018-04-26T05:21:09.535Z,978.17
2018-04-26T05:22:09.463Z,978.22
2018-04-26T05:23:09.380Z,978.19
2018-04-26T05:24:09.304Z,978.23
2018-04-26T05:25:09.225Z,978.18
2018-04-26T05:26:09.147Z,978.14
2018-04-26T05:27:09.070Z,978.18
2018-04-26T05:28:09.011Z,978.26
2018-04-26T05:29:08.915Z,978.30
2018-04-26T05:30:08.836Z,978.35
2018-04-26T05:31:08.762Z,978.32
2018-04-26T05:32:08.687Z,978.39
2018-04-26T05:33:08.609Z,978.45
2018-04-26T05:34:08.524Z,978.55
2018-04-26T05:35:08.448Z,978.54
2018-04-26T05:36:08.371Z,978.50
2018-04-26T05:37:08.293Z,978.49
2018-04-26T05:38:08.216Z,978.51
2018-04-26T05:39:08.144Z,978.49
2018-04-26T05:40:08.058Z,978.50
2018-04-26T05:41:07.981Z,978.52
2018-04-26T05:42:07.904Z,978.55
2018-04-26T05:43:07.825Z,978.59
2018-04-26T05:44:07.752Z,978.61
2018-04-26T05:45:07.674Z,978.70
2018-04-26T05:46:07.595Z,978.77
2018-04-26T05:47:07.519Z,978.82
2018-04-26T05:48:07.439Z,978.84
2018-04-26T05:49:07.365Z,978.81
2018-04-26T05:50:07.284Z,978.85
2018-04-26T05:51:07.207Z,978.84
2018-04-26T05:52:07.139Z,978.86
2018-04-26T05:53:07.051Z,978.91
2018-04-26T05:54:06.974Z,978.90
2018-04-26T05:55:06.906Z,978.90
2018-04-26T05:56:06.861Z,978.98
2018-04-26T05:57:06.740Z,978.97
2018-04-26T05:58:06.663Z,979.05
2018-04-26T05:59:06.585Z,979.03
2018-04-26T06:00:06.509Z,978.97
2018-04-26T06:01:06.430Z,978.98
2018-04-26T06:02:06.351Z,978.96
2018-04-26T06:03:06.273Z,978.97
2018-04-26T06:04:06.199Z,978.97
2018-04-26T06:05:06.117Z,978.93
2018-04-26T06:06:06.046Z,979.01
2018-04-26T06:07:05.964Z,978.93
2018-04-26T06:08:05.884Z,978.94
2018-04-26T06:09:05.816Z,978.92
2018-04-26T06:10:05.729Z,978.86
2018-04-26T06:11:05.654Z,978.76
2018-04-26T06:12:05.579Z,978.77
2018-04-26T06:13:05.494Z,978.82
2018-04-26T06:14:05.431Z,978.86
2018-04-26T06:15:05.341Z,978.88
2018-04-26T06:16:05.259Z,978.82
2018-04-26T06:17:05.194Z,978.80
2018-04-26T06:18:05.110Z,978.70
2018-04-26T06:19:05.029Z,978.72
2018-04-26T06:20:04.955Z,978.72
2018-04-26T06:21:04.871Z,978.67
2018-04-26T06:22:04.796Z,978.68
2018-04-26T06:23:04.759Z,978.68
2018-04-26T06:24:04.639Z,978.67
2018-04-26T06:25:04.594Z,978.62
2018-04-26T06:26:04.485Z,978.66
2018-04-26T06:27:04.407Z,978.65
2018-04-26T06:28:04.325Z,978.68
2018-04-26T06:29:04.249Z,978.67
2018-04-26T06:30:04.174Z,978.68
2018-04-26T06:31:04.104Z,978.72
2018-04-26T06:32:04.019Z,978.72
2018-04-26T06:33:03.954Z,978.71
2018-04-26T06:34:03.862Z,978.71
2018-04-26T06:35:03.786Z,978.71
2018-04-26T06:36:03.707Z,978.71
2018-04-26T06:37:03.627Z,978.71
2018-04-26T06:38:03.555Z,978.75
2018-04-26T06:39:03.475Z,978.82
2018-04-26T06:40:03.399Z,978.85
2018-04-26T06:41:03.318Z,978.83
2018-04-26T06:42:03.277Z,978.86
2018-04-26T06:43:03.171Z,978.86
2018-04-26T06:44:03.086Z,978.83
2018-04-26T06:45:03.007Z,978.86
2018-04-26T06:46:02.944Z,978.91
2018-04-26T06:47:02.852Z,978.94
2018-04-26T06:48:02.787Z,979.01
2018-04-26T06:49:02.698Z,979.00
2018-04-26T06:50:02.629Z,978.97
2018-04-26T06:51:02.555Z,978.95
2018-04-26T06:52:02.469Z,978.95
2018-04-26T06:53:02.388Z,978.99
2018-04-26T06:54:02.318Z,979.02
2018-04-26T06:55:02.232Z,979.00
2018-04-26T06:56:02.164Z,979.03
2018-04-26T06:57:02.077Z,979.00
2018-04-26T06:58:02.032Z,978.98
2018-04-26T06:59:01.924Z,978.95
2018-04-26T07:00:01.856Z,979.02
2018-04-26T07:01:01.796Z,979.04
2018-04-26T07:02:01.696Z,979.02
2018-04-26T07:03:01.618Z,979.05
2018-04-26T07:04:01.555Z,979.03
2018-04-26T07:05:01.462Z,979.04
2018-04-26T07:06:01.390Z,979.06
2018-04-26T07:07:01.313Z,979.08
2018-04-26T07:08:01.234Z,979.12
2018-04-26T07:09:01.152Z,979.11
2018-04-26T07:10:01.082Z,979.12
2018-04-26T07:11:00.998Z,979.15
2018-04-26T07:12:00.958Z,979.16
2018-04-26T07:13:00.853Z,979.14
2018-04-26T07:14:00.775Z,979.12
2018-04-26T07:15:00.709Z,979.06
2018-04-26T07:16:00.625Z,979.01
2018-04-26T07:17:00.564Z,978.98
2018-04-26T07:18:00.463Z,978.94
2018-04-26T07:19:00.406Z,978.95
2018-04-26T07:20:00.310Z,978.94
2018-04-26T07:21:00.243Z,978.97
2018-04-26T07:22:00.183Z,978.95
2018-04-26T07:23:00.074Z,979.00
2018-04-26T07:24:00.000Z,979.04
2018-04-26T07:24:59.919Z,979.05
2018-04-26T07:25:59.846Z,979.08
2018-04-26T07:26:59.768Z,979.02
2018-04-26T07:27:59.691Z,979.00
2018-04-26T07:28:59.610Z,979.02
2018-04-26T07:29:59.538Z,979.05
2018-04-26T07:30:59.460Z,979.09
2018-04-26T07:31:59.383Z,979.08
2018-04-26T07:32:59.304Z,979.10
2018-04-26T07:33:59.244Z,979.11
2018-04-26T07:34:59.282Z,979.16
2018-04-26T07:35:59.079Z,979.16
2018-04-26T07:36:58.998Z,979.13
2018-04-26T07:37:58.925Z,979.16
2018-04-26T07:38:58.855Z,979.14
2018-04-26T07:39:58.770Z,979.16
2018-04-26T07:40:58.694Z,979.26
2018-04-26T07:41:58.616Z,979.23
2018-04-26T07:42:58.540Z,979.23
2018-04-26T07:43:58.465Z,979.22
2018-04-26T07:44:58.385Z,979.26
2018-04-26T07:45:58.309Z,979.24
2018-04-26T07:46:58.234Z,979.18
2018-04-26T07:47:58.156Z,979.22
2018-04-26T07:48:58.095Z,979.27
2018-04-26T07:49:58.006Z,979.28
2018-04-26T07:50:57.931Z,979.24
2018-04-26T07:51:57.851Z,979.24
2018-04-26T07:52:57.781Z,979.23
2018-04-26T07:53:57.698Z,979.26
2018-04-26T07:54:57.624Z,979.27
2018-04-26T07:55:57.545Z,979.24
2018-04-26T07:56:57.473Z,979.18
2018-04-26T07:57:57.393Z,979.14
2018-04-26T07:58:57.318Z,979.19
2018-04-26T07:59:57.256Z,979.16
2018-04-26T08:00:57.165Z,979.13
2018-04-26T08:01:57.090Z,979.20
2018-04-26T08:02:57.012Z,979.22
2018-04-26T08:03:56.937Z,979.24
2018-04-26T08:04:56.862Z,979.23
2018-04-26T08:05:56.801Z,979.24
2018-04-26T08:06:56.707Z,979.27
2018-04-26T08:07:56.630Z,979.30
2018-04-26T08:08:56.559Z,979.31
2018-04-26T08:09:56.482Z,979.30
2018-04-26T08:10:56.430Z,979.27
2018-04-26T08:11:56.329Z,979.28
2018-04-26T08:12:56.249Z,979.24
2018-04-26T08:13:56.173Z,979.28
2018-04-26T08:14:56.094Z,979.21
2018-04-26T08:15:56.021Z,979.19
2018-04-26T08:16:55.960Z,979.22
2018-04-26T08:17:55.866Z,979.21
2018-04-26T08:18:55.793Z,979.24
2018-04-26T08:19:55.714Z,979.26
2018-04-26T08:20:55.637Z,979.30
2018-04-26T08:21:55.560Z,979.26
2018-04-26T08:22:55.487Z,979.25
2018-04-26T08:23:55.410Z,979.29
2018-04-26T08:24:55.400Z,979.27
2018-04-26T08:25:55.252Z,979.29
2018-04-26T08:26:55.178Z,979.33
2018-04-26T08:27:55.102Z,979.42
2018-04-26T08:28:55.024Z,979.41
2018-04-26T08:29:54.953Z,979.47
2018-04-26T08:30:54.872Z,979.47
2018-04-26T08:31:54.797Z,979.49
2018-04-26T08:32:54.717Z,979.50
2018-04-26T08:33:54.644Z,979.52
2018-04-26T08:34:54.567Z,979.52
2018-04-26T08:35:54.499Z,979.49
2018-04-26T08:36:54.497Z,979.47
2018-04-26T08:37:54.353Z,979.45
2018-04-26T08:38:54.259Z,979.48
2018-04-26T08:39:54.183Z,979.46
2018-04-26T08:40:54.111Z,979.46
2018-04-26T08:41:54.029Z,979.49
2018-04-26T08:42:53.958Z,979.50
2018-04-26T08:43:53.909Z,979.45
2018-04-26T08:44:53.803Z,979.40
2018-04-26T08:45:53.727Z,979.37
2018-04-26T08:46:53.650Z,979.45
2018-04-26T08:47:53.576Z,979.47
2018-04-26T08:48:53.497Z,979.51
2018-04-26T08:49:53.433Z,979.51
2018-04-26T08:50:53.349Z,979.53
2018-04-26T08:51:53.273Z,979.55
2018-04-26T08:52:53.194Z,979.57
2018-04-26T08:53:53.121Z,979.57
2018-04-26T08:54:53.044Z,979.61
2018-04-26T08:55:52.968Z,979.56
2018-04-26T08:56:52.895Z,979.48
2018-04-26T08:57:52.817Z,979.54
2018-04-26T08:58:52.744Z,979.53
2018-04-26T08:59:52.667Z,979.51
2018-04-26T09:00:52.592Z,979.52
2018-04-26T09:01:52.514Z,979.56
2018-04-26T09:02:52.441Z,979.53
2018-04-26T09:03:52.364Z,979.63
2018-04-26T09:04:52.291Z,979.53
2018-04-26T09:05:52.213Z,979.65
2018-04-26T09:06:52.143Z,979.66
2018-04-26T09:07:52.065Z,979.62
2018-04-26T09:08:51.989Z,979.60
2018-04-26T09:09:51.926Z,979.51
2018-04-26T09:10:51.836Z,979.56
2018-04-26T09:11:51.767Z,979.59
2018-04-26T09:12:51.689Z,979.54
2018-04-26T09:13:51.609Z,979.56
2018-04-26T09:14:51.534Z,979.61
2018-04-26T09:15:51.538Z,979.64
2018-04-26T09:16:51.386Z,979.63
2018-04-26T09:17:51.309Z,979.70
2018-04-26T09:18:51.243Z,979.63
2018-04-26T09:19:51.160Z,979.56
2018-04-26T09:20:51.087Z,979.68
2018-04-26T09:21:51.068Z,979.60
2018-04-26T09:22:50.936Z,979.55
2018-04-26T09:23:50.861Z,979.56
2018-04-26T09:24:50.786Z,979.56
2018-04-26T09:25:50.745Z,979.57
2018-04-26T09:26:50.635Z,979.57
2018-04-26T09:27:50.557Z,979.62
2018-04-26T09:28:50.483Z,979.55
2018-04-26T09:29:50.405Z,979.56
2018-04-26T09:30:50.333Z,979.51
2018-04-26T09:31:50.257Z,979.47
2018-04-26T09:32:50.181Z,979.51
2018-04-26T09:33:50.107Z,979.46
2018-04-26T09:34:50.030Z,979.51
2018-04-26T09:35:49.964Z,979.43
2018-04-26T09:36:49.891Z,979.40
2018-04-26T09:37:49.805Z,979.46
2018-04-26T09:38:49.844Z,979.58
2018-04-26T09:39:49.656Z,979.44
2018-04-26T09:40:49.584Z,979.40
2018-04-26T09:41:49.515Z,979.44
2018-04-26T09:42:49.434Z,979.47
2018-04-26T09:43:49.356Z,979.42
2018-04-26T09:44:49.303Z,979.46
2018-04-26T09:45:49.234Z,979.50
2018-04-26T09:46:49.133Z,979.48
2018-04-26T09:47:49.062Z,979.39
2018-04-26T09:48:48.985Z,979.45
2018-04-26T09:49:48.913Z,979.44
2018-04-26T09:50:48.837Z,979.40
2018-04-26T09:51:48.764Z,979.38
2018-04-26T09:52:48.686Z,979.35
2018-04-26T09:53:48.613Z,979.44
2018-04-26T09:54:48.541Z,979.40
2018-04-26T09:55:48.465Z,979.44
2018-04-26T09:56:48.391Z,979.45
2018-04-26T09:57:48.317Z,979.42
2018-04-26T09:58:48.303Z,979.49
2018-04-26T09:59:48.169Z,979.49
2018-04-26T10:00:48.102Z,979.71
2018-04-26T10:01:48.050Z,979.50
2018-04-26T10:02:47.943Z,979.49
2018-04-26T10:03:47.870Z,979.57
2018-04-26T10:04:47.793Z,979.57
2018-04-26T10:05:47.728Z,979.58
2018-04-26T10:06:47.651Z,979.56
2018-04-26T10:07:47.572Z,979.47
2018-04-26T10:08:47.540Z,979.44
2018-04-26T10:09:47.424Z,979.44
2018-04-26T10:10:47.348Z,979.40
2018-04-26T10:11:47.273Z,979.33
2018-04-26T10:12:47.213Z,979.43
2018-04-26T10:13:47.125Z,979.27
2018-04-26T10:14:47.047Z,979.33
2018-04-26T10:15:46.975Z,979.33
2018-04-26T10:16:46.898Z,979.42
2018-04-26T10:17:46.849Z,979.36
2018-04-26T10:18:46.749Z,979.29
2018-04-26T10:19:46.677Z,979.28
2018-04-26T10:20:46.671Z,979.29
2018-04-26T10:21:46.566Z,979.29
2018-04-26T10:22:46.491Z,979.24
2018-04-26T10:23:46.399Z,979.25
2018-04-26T10:24:46.296Z,979.26
2018-04-26T10:25:46.291Z,979.20
2018-04-26T10:26:46.147Z,979.21
2018-04-26T10:27:46.087Z,979.23
2018-04-26T10:28:45.996Z,979.28
2018-04-26T10:29:45.922Z,979.37
2018-04-26T10:30:46.073Z,979.37
2018-04-26T10:31:45.784Z,979.37
2018-04-26T10:32:45.725Z,979.38
2018-04-26T10:33:45.622Z,979.32
2018-04-26T10:34:45.583Z,979.33
2018-04-26T10:35:45.551Z,979.32
2018-04-26T10:36:45.399Z,979.35
2018-04-26T10:37:45.392Z,979.36
2018-04-26T10:38:45.311Z,979.36
2018-04-26T10:39:45.173Z,979.35
2018-04-26T10:40:45.100Z,979.34
2018-04-26T10:41:45.028Z,979.40
2018-04-26T10:42:44.966Z,979.38
2018-04-26T10:43:44.874Z,979.27
2018-04-26T10:44:44.806Z,979.30
2018-04-26T10:45:44.727Z,979.31
2018-04-26T10:46:44.653Z,979.33
2018-04-26T10:47:44.579Z,979.40
2018-04-26T10:48:44.505Z,979.63
2018-04-26T10:49:44.432Z,979.45
2018-04-26T10:50:44.356Z,979.55
2018-04-26T10:51:44.282Z,979.49
2018-04-26T10:52:44.208Z,979.65
2018-04-26T10:53:44.133Z,979.53
2018-04-26T10:54:44.059Z,979.52
2018-04-26T10:55:43.991Z,979.48
2018-04-26T10:56:43.916Z,979.42
2018-04-26T10:57:43.836Z,979.47
2018-04-26T10:58:43.764Z,979.52
2018-04-26T10:59:43.692Z,979.44
2018-04-26T11:00:43.614Z,979.46
2018-04-26T11:01:43.546Z,979.43
2018-04-26T11:02:43.464Z,979.47
2018-04-26T11:03:43.392Z,979.43
2018-04-26T11:04:43.313Z,979.50
2018-04-26T11:05:43.238Z,979.49
2018-04-26T11:06:43.164Z,979.47
2018-04-26T11:07:43.093Z,979.52
2018-04-26T11:08:43.022Z,979.53
2018-04-26T11:09:42.951Z,979.55
2018-04-26T11:10:42.867Z,979.50
2018-04-26T11:11:42.794Z,979.54
2018-04-26T11:12:42.717Z,979.57
2018-04-26T11:13:42.644Z,979.51
2018-04-26T11:14:42.568Z,979.68
2018-04-26T11:15:42.495Z,979.51
2018-04-26T11:16:42.422Z,979.47
2018-04-26T11:17:42.344Z,979.47
2018-04-26T11:18:42.270Z,979.48
2018-04-26T11:19:42.207Z,979.50
2018-04-26T11:20:42.139Z,979.39
2018-04-26T11:21:42.054Z,979.43
2018-04-26T11:22:41.985Z,979.38
2018-04-26T11:23:41.899Z,979.48
2018-04-26T11:24:41.823Z,979.48
2018-04-26T11:25:41.749Z,979.47
2018-04-26T11:26:41.676Z,979.47
2018-04-26T11:27:41.598Z,979.40
2018-04-26T11:28:41.548Z,979.41
2018-04-26T11:29:41.454Z,979.29
2018-04-26T11:30:41.376Z,979.30
2018-04-26T11:31:41.312Z,979.40
2018-04-26T11:32:41.461Z,979.34
2018-04-26T11:33:41.164Z,979.29
2018-04-26T11:34:41.089Z,979.36
2018-04-26T11:35:41.008Z,979.27
2018-04-26T11:36:40.989Z,979.35
2018-04-26T11:37:40.866Z,979.39
2018-04-26T11:38:40.788Z,979.25
2018-04-26T11:39:40.716Z,979.33
2018-04-26T11:40:40.643Z,979.37
2018-04-26T11:41:40.576Z,979.26
2018-04-26T11:42:40.524Z,979.30
2018-04-26T11:43:40.423Z,979.40
2018-04-26T11:44:40.348Z,979.34
2018-04-26T11:45:40.278Z,979.31
2018-04-26T11:46:40.222Z,979.39
2018-04-26T11:47:40.129Z,979.39
2018-04-26T11:48:40.068Z,979.46
2018-04-26T11:49:39.985Z,979.38
2018-04-26T11:50:39.915Z,979.46
2018-04-26T11:51:39.851Z,979.40
2018-04-26T11:52:39.784Z,979.47
2018-04-26T11:53:39.703Z,979.40
2018-04-26T11:54:39.623Z,979.43
2018-04-26T11:55:39.606Z,979.39
2018-04-26T11:56:39.480Z,979.33
2018-04-26T11:57:39.420Z,979.43
2018-04-26T11:58:39.329Z,979.45
2018-04-26T11:59:39.257Z,979.48
2018-04-26T12:00:39.207Z,979.46
2018-04-26T12:01:39.128Z,979.45
2018-04-26T12:02:39.051Z,979.48
2018-04-26T12:03:38.968Z,979.41
2018-04-26T12:04:38.917Z,979.38
2018-04-26T12:05:38.846Z,979.35
2018-04-26T12:06:38.757Z,979.33
2018-04-26T12:07:38.761Z,979.31
2018-04-26T12:08:38.610Z,979.33
2018-04-26T12:09:38.536Z,979.30
2018-04-26T12:10:38.462Z,979.47
2018-04-26T12:11:38.388Z,979.46
2018-04-26T12:12:38.318Z,979.40
2018-04-26T12:13:38.246Z,979.46
2018-04-26T12:14:38.178Z,979.38
2018-04-26T12:15:38.103Z,979.42
2018-04-26T12:16:38.031Z,979.40
2018-04-26T12:17:37.958Z,979.39
2018-04-26T12:18:37.974Z,979.39
2018-04-26T12:19:37.822Z,979.42
2018-04-26T12:20:37.743Z,979.34
2018-04-26T12:21:37.674Z,979.38
2018-04-26T12:22:37.620Z,979.46
2018-04-26T12:23:37.538Z,979.42
2018-04-26T12:24:37.474Z,979.31
2018-04-26T12:25:37.390Z,979.28
2018-04-26T12:26:37.307Z,979.29
2018-04-26T12:27:37.252Z,979.23